Terminal Aerodrome Forecast
Issued by NWS

Home | Current Version | Previous Version | Text Only | Print | Product List | Glossary On
Versions: 1 2 3 4 5 6 7 8 9 10 11 12 13
000
FTUS45 KGGW 232300
TAFSDY
TAF
KSDY 232320Z 2400/2424 11011G21KT P6SM BKN070
     FM240300 11007KT P6SM BKN060
     FM240900 VRB05KT P6SM BKN015 OVC025
     FM241200 VRB05KT P6SM VCSH BKN007 OVC015
     FM241800 07011KT 6SM -SHRA BKN025 OVC035
      AMD LTD TO CLD VIS AND WIND=

USA.gov is the U.S. government's official web portal to all federal, state and local government web resources and services.